createdAt,value
2019-05-16T05:12:40.673Z,17.40
2019-05-16T05:15:07.259Z,18.00
2019-05-16T05:17:36.379Z,18.10
2019-05-16T05:20:06.503Z,18.10
2019-05-16T05:22:34.977Z,18.20
2019-05-16T05:25:03.766Z,18.20
2019-05-16T05:27:32.231Z,18.30
2019-05-16T05:30:01.274Z,18.30
2019-05-16T05:32:30.630Z,18.30
2019-05-16T05:34:59.853Z,18.30
2019-05-16T05:37:26.866Z,18.40
2019-05-16T05:39:55.691Z,18.40
2019-05-16T05:42:24.526Z,18.40
2019-05-16T05:44:53.373Z,18.40
2019-05-16T05:47:21.853Z,18.40
2019-05-16T05:49:50.353Z,18.40
2019-05-16T05:52:20.856Z,18.50
2019-05-16T05:54:50.141Z,18.50
2019-05-16T05:57:17.041Z,18.50
2019-05-16T05:59:46.167Z,18.50
2019-05-16T06:02:14.877Z,18.50
2019-05-16T06:04:43.644Z,18.60
2019-05-16T06:07:12.518Z,18.60
2019-05-16T06:09:52.393Z,18.60
2019-05-16T06:12:10.561Z,18.60
2019-05-16T06:14:41.648Z,18.70
2019-05-16T06:17:07.161Z,18.70
2019-05-16T06:19:35.640Z,18.70
2019-05-16T06:22:04.193Z,18.70
2019-05-16T06:24:32.841Z,18.80
2019-05-16T06:27:01.663Z,18.80
2019-05-16T06:29:31.115Z,18.80
2019-05-16T06:32:00.197Z,18.80
2019-05-16T06:34:30.145Z,18.90
2019-05-16T06:36:57.489Z,18.90
2019-05-16T06:39:39.183Z,18.90
2019-05-16T06:41:54.774Z,19.00
2019-05-16T06:44:23.603Z,19.00
2019-05-16T06:47:07.084Z,19.00
2019-05-16T06:49:21.238Z,19.00
2019-05-16T06:54:20.608Z,19.10
2019-05-16T06:56:46.737Z,19.10
2019-05-16T06:59:15.518Z,19.20
2019-05-16T07:01:44.370Z,19.20
2019-05-16T07:04:12.842Z,19.20
2019-05-16T07:06:55.048Z,19.20
2019-05-16T07:09:10.530Z,19.30
2019-05-16T07:11:39.809Z,19.30
2019-05-16T07:14:10.347Z,19.30
2019-05-16T07:16:36.166Z,19.30
2019-05-16T07:19:05.254Z,19.30
2019-05-16T07:21:34.099Z,19.30
2019-05-16T07:24:03.398Z,19.40
2019-05-16T07:26:33.419Z,19.40
2019-05-16T07:29:02.202Z,19.40
2019-05-16T07:31:30.724Z,19.40
2019-05-16T07:34:00.849Z,19.40
2019-05-16T07:36:31.123Z,19.40
2019-05-16T07:38:59.648Z,19.40
2019-05-16T07:41:25.855Z,19.40
2019-05-16T07:43:54.349Z,19.40
2019-05-16T07:46:22.820Z,19.40
2019-05-16T07:48:52.168Z,19.40
2019-05-16T07:51:20.668Z,19.30
2019-05-16T07:53:50.486Z,19.30
2019-05-16T07:56:20.191Z,19.40
2019-05-16T07:58:46.243Z,19.30
2019-05-16T08:01:15.082Z,19.30
2019-05-16T08:03:44.249Z,19.30
2019-05-16T08:06:12.908Z,19.30
2019-05-16T08:08:41.642Z,19.30
2019-05-16T08:11:13.449Z,19.30
2019-05-16T08:13:41.939Z,19.30
2019-05-16T08:16:11.010Z,19.40
2019-05-16T08:18:44.747Z,19.30
2019-05-16T08:21:10.930Z,19.30
2019-05-16T08:23:37.139Z,19.30
2019-05-16T08:26:05.947Z,19.40
2019-05-16T08:28:34.812Z,19.40
2019-05-16T08:31:03.317Z,19.30
2019-05-16T08:33:32.254Z,19.40
2019-05-16T08:38:30.876Z,19.40
2019-05-16T08:43:26.887Z,19.40
2019-05-16T08:45:55.363Z,19.40
2019-05-16T08:48:24.108Z,19.40
2019-05-16T08:50:08.654Z,19.40
2019-05-16T08:50:10.028Z,19.40
2019-05-16T08:50:54.798Z,19.40
2019-05-16T08:53:21.860Z,19.40
2019-05-16T08:55:50.696Z,19.40
2019-05-16T08:58:22.398Z,19.40
2019-05-16T09:00:47.894Z,19.40
2019-05-16T09:03:16.385Z,19.40
2019-05-16T09:05:44.844Z,19.40
2019-05-16T09:08:13.321Z,19.40
2019-05-16T09:10:51.458Z,19.40
2019-05-16T09:13:10.893Z,19.40
2019-05-16T09:15:39.377Z,19.40
2019-05-16T09:20:37.480Z,19.40
2019-05-16T09:23:07.151Z,19.40
2019-05-16T09:28:01.659Z,19.40
2019-05-16T09:30:30.408Z,19.50
2019-05-16T09:32:58.954Z,19.50
2019-05-16T09:35:28.134Z,19.50
2019-05-16T09:37:57.604Z,19.40
2019-05-16T09:40:27.837Z,19.50
2019-05-16T09:42:56.692Z,19.50
2019-05-16T09:45:22.966Z,19.50
2019-05-16T09:47:51.691Z,19.50
2019-05-16T09:50:20.183Z,19.50
2019-05-16T09:52:49.012Z,19.50
2019-05-16T09:55:17.775Z,19.50
2019-05-16T09:57:46.865Z,19.50
2019-05-16T10:00:17.888Z,19.50
2019-05-16T10:02:47.337Z,19.50
2019-05-16T10:05:13.869Z,19.50
2019-05-16T10:07:42.253Z,19.50
2019-05-16T10:10:10.762Z,19.50
2019-05-16T10:12:39.524Z,19.50
2019-05-16T10:15:08.260Z,19.50
2019-05-16T10:17:37.165Z,19.50
2019-05-16T10:20:07.965Z,19.60
2019-05-16T10:22:34.493Z,19.60
2019-05-16T10:25:02.983Z,19.60
2019-05-16T10:27:32.070Z,19.60
2019-05-16T10:30:01.835Z,19.60
2019-05-16T10:32:29.901Z,19.60
2019-05-16T10:34:58.910Z,19.60
2019-05-16T10:37:28.038Z,19.60
2019-05-16T10:39:59.835Z,19.70
2019-05-16T10:42:28.949Z,19.70
2019-05-16T10:44:54.157Z,19.70
2019-05-16T10:47:22.992Z,19.70
2019-05-16T10:49:51.847Z,19.70
2019-05-16T10:52:20.694Z,19.70
2019-05-16T10:54:58.015Z,19.70
2019-05-16T10:57:17.772Z,19.70
2019-05-16T11:00:03.383Z,19.70
2019-05-16T11:02:16.704Z,19.80
2019-05-16T11:04:57.262Z,19.80
2019-05-16T11:07:12.588Z,19.80
2019-05-16T11:09:54.734Z,19.80
2019-05-16T11:12:09.825Z,19.90
2019-05-16T11:14:38.951Z,19.90
2019-05-16T11:17:12.770Z,19.90
2019-05-16T11:19:37.242Z,19.90
2019-05-16T11:22:05.171Z,19.90
2019-05-16T11:24:33.673Z,19.90
2019-05-16T11:27:02.780Z,19.90
2019-05-16T11:29:31.762Z,20.00
2019-05-16T11:32:00.631Z,20.00
2019-05-16T11:34:29.485Z,20.00
2019-05-16T11:36:57.971Z,20.00
2019-05-16T11:39:26.465Z,20.00
2019-05-16T11:41:57.071Z,20.00
2019-05-16T11:44:27.956Z,20.10
2019-05-16T11:49:21.022Z,20.10
2019-05-16T11:51:49.825Z,20.10
2019-05-16T11:54:18.331Z,20.10
2019-05-16T11:56:46.809Z,20.10
2019-05-16T11:59:15.287Z,20.10
2019-05-16T12:01:43.770Z,20.10
2019-05-16T12:04:12.502Z,20.10
2019-05-16T12:06:41.318Z,20.20
2019-05-16T12:09:09.836Z,20.20
2019-05-16T12:11:38.582Z,20.20
2019-05-16T12:14:07.440Z,20.20
2019-05-16T12:16:37.859Z,20.20
2019-05-16T12:19:06.714Z,20.20
2019-05-16T12:21:33.190Z,20.20
2019-05-16T12:24:01.671Z,20.20
2019-05-16T12:26:30.222Z,20.20
2019-05-16T12:28:58.678Z,20.30
2019-05-16T12:31:27.500Z,20.30
2019-05-16T12:33:59.676Z,20.30
2019-05-16T12:36:26.772Z,20.30
2019-05-16T12:38:53.679Z,20.30
2019-05-16T12:41:22.641Z,20.30
2019-05-16T12:43:53.596Z,20.30
2019-05-16T12:46:20.345Z,20.30
2019-05-16T12:48:49.519Z,20.30
2019-05-16T12:51:18.361Z,20.30
2019-05-16T12:53:47.712Z,20.30
2019-05-16T12:56:17.504Z,20.30
2019-05-16T12:58:44.187Z,20.30
2019-05-16T13:01:16.367Z,20.40
2019-05-16T13:03:41.617Z,20.40
2019-05-16T13:06:10.403Z,20.40
2019-05-16T13:08:39.158Z,20.40
2019-05-16T13:11:08.007Z,20.40
2019-05-16T13:13:37.465Z,20.40
2019-05-16T13:16:07.489Z,20.40
2019-05-16T13:18:33.806Z,20.40
2019-05-16T13:21:02.282Z,20.40
2019-05-16T13:23:31.097Z,20.40
2019-05-16T13:26:00.119Z,20.40
2019-05-16T13:28:28.597Z,20.50
2019-05-16T13:30:57.824Z,20.50
2019-05-16T13:33:27.164Z,20.50
2019-05-16T13:35:57.601Z,20.50
2019-05-16T13:38:23.447Z,20.50
2019-05-16T13:40:52.298Z,20.50
2019-05-16T13:43:21.080Z,20.50
2019-05-16T13:45:49.547Z,20.60
2019-05-16T13:48:18.018Z,20.60
2019-05-16T13:50:47.305Z,20.60
2019-05-16T13:53:16.383Z,20.60
2019-05-16T13:55:44.126Z,20.60
2019-05-16T13:58:12.940Z,20.60
2019-05-16T14:00:41.405Z,20.60
2019-05-16T14:03:10.062Z,20.60
2019-05-16T14:05:38.558Z,20.60
2019-05-16T14:08:07.167Z,20.60
2019-05-16T14:10:37.431Z,20.60
2019-05-16T14:13:07.226Z,20.60
2019-05-16T14:18:02.002Z,20.60
2019-05-16T14:20:30.473Z,20.70
2019-05-16T14:23:01.608Z,20.60
2019-05-16T14:25:27.502Z,20.70
2019-05-16T14:27:56.833Z,20.70
2019-05-16T14:30:24.812Z,20.70
2019-05-16T14:32:53.696Z,20.70
2019-05-16T14:35:22.447Z,20.70
2019-05-16T14:37:57.423Z,20.70
2019-05-16T14:40:20.039Z,20.70
2019-05-16T14:42:48.977Z,20.70
2019-05-16T14:45:17.503Z,20.70
2019-05-16T14:47:47.679Z,20.70
2019-05-16T14:50:17.005Z,20.70
2019-05-16T14:52:44.352Z,20.80
2019-05-16T14:55:13.077Z,20.70
2019-05-16T14:57:41.893Z,20.80
2019-05-16T15:00:10.387Z,20.80
2019-05-16T15:02:39.206Z,20.80
2019-05-16T15:05:08.052Z,20.80
2019-05-16T15:07:37.448Z,20.80
2019-05-16T15:10:07.372Z,20.80
2019-05-16T15:12:33.771Z,20.80
2019-05-16T15:15:16.101Z,20.80
2019-05-16T15:17:32.594Z,20.80
2019-05-16T15:20:01.110Z,20.90
2019-05-16T15:22:29.910Z,20.90
2019-05-16T15:24:59.463Z,20.90
2019-05-16T15:27:27.858Z,20.90
2019-05-16T15:29:57.645Z,20.90
2019-05-16T15:32:28.266Z,21.00
2019-05-16T15:34:57.020Z,21.00
2019-05-16T15:37:23.090Z,21.00
2019-05-16T15:39:54.163Z,21.00
2019-05-16T15:42:21.294Z,21.10
2019-05-16T15:44:50.699Z,21.10
2019-05-16T15:47:19.180Z,21.10
2019-05-16T15:49:48.013Z,21.20
2019-05-16T15:52:16.859Z,21.20
2019-05-16T15:54:45.211Z,21.30
2019-05-16T15:57:13.721Z,21.30
2019-05-16T15:59:42.571Z,21.40
2019-05-16T16:02:11.446Z,21.40
2019-05-16T16:04:39.918Z,21.50
2019-05-16T16:07:08.412Z,21.50
2019-05-16T16:09:37.963Z,21.50
2019-05-16T16:12:08.150Z,21.60
2019-05-16T16:14:36.729Z,21.60
2019-05-16T16:17:03.976Z,21.70
2019-05-16T16:19:33.030Z,21.80
2019-05-16T16:22:01.875Z,21.80
2019-05-16T16:24:30.829Z,21.90
2019-05-16T16:26:59.653Z,21.90
2019-05-16T16:29:28.534Z,22.00
2019-05-16T16:31:57.444Z,22.00
2019-05-16T16:34:26.876Z,22.10
2019-05-16T16:36:56.955Z,22.20
2019-05-16T16:39:26.679Z,22.30
2019-05-16T16:41:53.319Z,22.30
2019-05-16T16:44:22.178Z,22.30
2019-05-16T16:46:51.321Z,22.30
2019-05-16T16:49:20.155Z,22.30
2019-05-16T16:51:48.990Z,22.40
2019-05-16T16:54:18.838Z,22.40
2019-05-16T16:56:48.130Z,22.50
2019-05-16T16:59:17.258Z,22.50
2019-05-16T17:01:46.542Z,22.50
2019-05-16T17:04:14.026Z,22.60
2019-05-16T17:06:42.549Z,22.60
2019-05-16T17:09:11.394Z,22.70
2019-05-16T17:11:40.718Z,22.80
2019-05-16T17:14:09.540Z,22.80
2019-05-16T17:16:38.306Z,22.90
2019-05-16T17:19:07.773Z,23.00
2019-05-16T17:21:36.812Z,23.10
2019-05-16T17:24:06.447Z,23.10
2019-05-16T17:26:34.392Z,23.20
2019-05-16T17:29:02.911Z,23.20
2019-05-16T17:31:31.410Z,23.30
2019-05-16T17:34:00.252Z,23.30
2019-05-16T17:36:28.741Z,23.40
2019-05-16T17:38:57.241Z,23.40
2019-05-16T17:41:27.298Z,23.50
2019-05-16T17:43:56.289Z,23.50
2019-05-16T17:46:34.869Z,23.60
2019-05-16T17:48:51.997Z,23.60
2019-05-16T17:51:20.876Z,23.70
2019-05-16T17:53:49.386Z,23.60
2019-05-16T17:56:20.118Z,23.60
2019-05-16T17:58:48.590Z,23.60
2019-05-16T18:01:17.258Z,23.70
2019-05-16T18:03:45.551Z,23.70
2019-05-16T18:06:14.055Z,23.70
2019-05-16T18:08:42.930Z,23.80
2019-05-16T18:11:11.588Z,23.80
2019-05-16T18:13:40.348Z,23.90
2019-05-16T18:16:08.840Z,23.90
2019-05-16T18:18:37.864Z,23.90
2019-05-16T18:21:06.903Z,23.90
2019-05-16T18:23:36.896Z,23.90
2019-05-16T18:26:04.153Z,23.90
2019-05-16T18:28:32.749Z,23.80
2019-05-16T18:31:01.233Z,23.80
2019-05-16T18:33:29.705Z,23.80
2019-05-16T18:35:58.812Z,23.70
2019-05-16T18:38:27.901Z,23.70
2019-05-16T18:40:56.771Z,23.60
2019-05-16T18:43:27.044Z,23.60
2019-05-16T18:48:22.181Z,23.40
2019-05-16T18:50:51.364Z,23.40
2019-05-16T18:53:20.117Z,23.30
2019-05-16T18:55:48.597Z,23.20
2019-05-16T18:58:18.140Z,23.10
2019-05-16T19:00:46.718Z,23.10
2019-05-16T19:03:16.475Z,23.00
2019-05-16T19:05:46.194Z,22.90
2019-05-16T19:08:12.701Z,22.90
2019-05-16T19:10:41.175Z,22.80
2019-05-16T19:13:12.324Z,22.70
2019-05-16T19:15:38.503Z,22.70
2019-05-16T19:18:07.475Z,22.60
2019-05-16T19:20:37.529Z,22.60
2019-05-16T19:23:07.357Z,22.50
2019-05-16T19:25:34.984Z,22.40
2019-05-16T19:28:06.525Z,22.40
2019-05-16T19:30:32.741Z,22.30
2019-05-16T19:33:01.492Z,22.30
2019-05-16T19:35:29.994Z,22.20
2019-05-16T19:37:59.388Z,22.20
2019-05-16T19:40:29.222Z,22.10
2019-05-16T19:42:58.083Z,22.10
2019-05-16T19:45:26.561Z,22.00
2019-05-16T19:47:57.801Z,22.00
2019-05-16T19:50:26.519Z,22.00
2019-05-16T19:52:52.739Z,21.90
2019-05-16T19:55:21.235Z,21.90
2019-05-16T19:57:49.757Z,21.90
2019-05-16T20:00:18.502Z,21.80
2019-05-16T20:02:47.436Z,21.80
2019-05-16T20:05:17.052Z,21.80
2019-05-16T20:07:44.384Z,21.70
2019-05-16T20:10:12.862Z,21.70
2019-05-16T20:12:41.622Z,21.70
2019-05-16T20:15:11.937Z,21.70
2019-05-16T20:17:50.954Z,21.60
2019-05-16T20:20:07.461Z,21.60
2019-05-16T20:22:36.947Z,21.60
2019-05-16T20:25:04.709Z,21.50
2019-05-16T20:27:33.189Z,21.50
2019-05-16T20:30:01.935Z,21.50
2019-05-16T20:32:30.470Z,21.40
2019-05-16T20:34:58.949Z,21.40
2019-05-16T20:37:27.445Z,21.40
2019-05-16T20:39:56.934Z,21.40
2019-05-16T20:42:27.309Z,21.40
2019-05-16T20:44:57.334Z,21.30
2019-05-16T20:47:22.985Z,21.30
2019-05-16T20:49:51.478Z,21.30
2019-05-16T20:52:20.317Z,21.30
2019-05-16T20:54:49.918Z,21.20
